sensor_id;sensor_type;location;lat;lon;timestamp;P1;durP1;ratioP1;P2;durP2;ratioP2
4202;SDS011;2115;51.038;7.006;2022-07-05T00:01:43;29.37;;;5.77;;
4202;SDS011;2115;51.038;7.006;2022-07-05T00:04:08;34.10;;;7.57;;
4202;SDS011;2115;51.038;7.006;2022-07-05T00:06:33;13.67;;;4.40;;
4202;SDS011;2115;51.038;7.006;2022-07-05T00:08:59;12.73;;;5.43;;
4202;SDS011;2115;51.038;7.006;2022-07-05T00:11:24;11.70;;;10.47;;
4202;SDS011;2115;51.038;7.006;2022-07-05T00:13:49;9.10;;;8.20;;
4202;SDS011;2115;51.038;7.006;2022-07-05T00:16:15;16.57;;;11.97;;
4202;SDS011;2115;51.038;7.006;2022-07-05T00:18:41;9.20;;;7.47;;
4202;SDS011;2115;51.038;7.006;2022-07-05T00:21:07;33.10;;;12.00;;
4202;SDS011;2115;51.038;7.006;2022-07-05T00:23:32;6.53;;;5.97;;
4202;SDS011;2115;51.038;7.006;2022-07-05T00:25:57;34.20;;;6.07;;
4202;SDS011;2115;51.038;7.006;2022-07-05T00:28:23;33.73;;;6.00;;
4202;SDS011;2115;51.038;7.006;2022-07-05T00:30:54;12.93;;;3.03;;
4202;SDS011;2115;51.038;7.006;2022-07-05T00:33:20;35.47;;;6.07;;
4202;SDS011;2115;51.038;7.006;2022-07-05T00:35:45;14.43;;;4.00;;
4202;SDS011;2115;51.038;7.006;2022-07-05T00:38:10;4.47;;;3.03;;
4202;SDS011;2115;51.038;7.006;2022-07-05T00:40:35;10.57;;;3.53;;
4202;SDS011;2115;51.038;7.006;2022-07-05T00:43:01;10.23;;;3.53;;
4202;SDS011;2115;51.038;7.006;2022-07-05T00:45:26;6.60;;;3.47;;
4202;SDS011;2115;51.038;7.006;2022-07-05T00:47:52;16.20;;;4.20;;
4202;SDS011;2115;51.038;7.006;2022-07-05T00:50:17;11.10;;;2.93;;
4202;SDS011;2115;51.038;7.006;2022-07-05T00:52:44;5.70;;;3.03;;
4202;SDS011;2115;51.038;7.006;2022-07-05T00:55:10;8.00;;;3.63;;
4202;SDS011;2115;51.038;7.006;2022-07-05T00:57:35;8.50;;;2.80;;
4202;SDS011;2115;51.038;7.006;2022-07-05T01:00:01;6.13;;;2.90;;
4202;SDS011;2115;51.038;7.006;2022-07-05T01:02:26;14.70;;;3.93;;
4202;SDS011;2115;51.038;7.006;2022-07-05T01:04:51;13.70;;;3.53;;
4202;SDS011;2115;51.038;7.006;2022-07-05T01:07:18;5.03;;;2.67;;
4202;SDS011;2115;51.038;7.006;2022-07-05T01:09:44;16.83;;;3.97;;
4202;SDS011;2115;51.038;7.006;2022-07-05T01:12:09;11.60;;;4.07;;
4202;SDS011;2115;51.038;7.006;2022-07-05T01:14:35;3.90;;;2.60;;
4202;SDS011;2115;51.038;7.006;2022-07-05T01:17:02;21.00;;;4.87;;
4202;SDS011;2115;51.038;7.006;2022-07-05T01:19:27;6.00;;;2.57;;
4202;SDS011;2115;51.038;7.006;2022-07-05T01:21:53;13.80;;;3.57;;
4202;SDS011;2115;51.038;7.006;2022-07-05T01:24:18;32.63;;;5.90;;
4202;SDS011;2115;51.038;7.006;2022-07-05T01:26:45;9.10;;;3.63;;
4202;SDS011;2115;51.038;7.006;2022-07-05T01:29:11;8.03;;;2.97;;
4202;SDS011;2115;51.038;7.006;2022-07-05T01:31:38;15.17;;;3.87;;
4202;SDS011;2115;51.038;7.006;2022-07-05T01:34:04;32.60;;;6.23;;
4202;SDS011;2115;51.038;7.006;2022-07-05T01:36:30;15.17;;;4.50;;
4202;SDS011;2115;51.038;7.006;2022-07-05T01:38:55;40.93;;;6.90;;
4202;SDS011;2115;51.038;7.006;2022-07-05T01:41:21;16.73;;;4.47;;
4202;SDS011;2115;51.038;7.006;2022-07-05T01:43:47;11.23;;;3.70;;
4202;SDS011;2115;51.038;7.006;2022-07-05T01:46:12;17.17;;;4.43;;
4202;SDS011;2115;51.038;7.006;2022-07-05T01:48:39;10.83;;;3.80;;
4202;SDS011;2115;51.038;7.006;2022-07-05T01:51:07;8.83;;;4.03;;
4202;SDS011;2115;51.038;7.006;2022-07-05T01:53:35;20.87;;;5.00;;
4202;SDS011;2115;51.038;7.006;2022-07-05T01:56:01;7.33;;;3.47;;
4202;SDS011;2115;51.038;7.006;2022-07-05T01:58:28;6.63;;;4.13;;
4202;SDS011;2115;51.038;7.006;2022-07-05T02:00:55;21.20;;;4.00;;
4202;SDS011;2115;51.038;7.006;2022-07-05T02:03:21;9.30;;;2.87;;
4202;SDS011;2115;51.038;7.006;2022-07-05T02:05:47;15.20;;;4.23;;
4202;SDS011;2115;51.038;7.006;2022-07-05T02:08:13;8.23;;;3.30;;
4202;SDS011;2115;51.038;7.006;2022-07-05T02:10:40;14.57;;;4.37;;
4202;SDS011;2115;51.038;7.006;2022-07-05T02:13:06;12.70;;;3.80;;
4202;SDS011;2115;51.038;7.006;2022-07-05T02:15:40;18.87;;;3.97;;
4202;SDS011;2115;51.038;7.006;2022-07-05T02:18:06;20.97;;;4.83;;
4202;SDS011;2115;51.038;7.006;2022-07-05T02:20:32;6.07;;;3.03;;
4202;SDS011;2115;51.038;7.006;2022-07-05T02:22:58;5.17;;;3.13;;
4202;SDS011;2115;51.038;7.006;2022-07-05T02:25:24;8.20;;;2.93;;
4202;SDS011;2115;51.038;7.006;2022-07-05T02:27:50;10.03;;;2.90;;
4202;SDS011;2115;51.038;7.006;2022-07-05T02:30:16;10.23;;;3.43;;
4202;SDS011;2115;51.038;7.006;2022-07-05T02:32:41;19.53;;;3.40;;
4202;SDS011;2115;51.038;7.006;2022-07-05T02:35:07;11.63;;;3.90;;
4202;SDS011;2115;51.038;7.006;2022-07-05T02:37:34;8.07;;;3.00;;
4202;SDS011;2115;51.038;7.006;2022-07-05T02:39:59;6.13;;;3.37;;
4202;SDS011;2115;51.038;7.006;2022-07-05T02:42:24;7.30;;;3.23;;
4202;SDS011;2115;51.038;7.006;2022-07-05T02:44:50;6.30;;;3.00;;
4202;SDS011;2115;51.038;7.006;2022-07-05T02:47:15;6.13;;;2.60;;
4202;SDS011;2115;51.038;7.006;2022-07-05T02:49:41;6.73;;;2.70;;
4202;SDS011;2115;51.038;7.006;2022-07-05T02:52:06;8.83;;;4.37;;
4202;SDS011;2115;51.038;7.006;2022-07-05T02:54:32;7.57;;;3.20;;
4202;SDS011;2115;51.038;7.006;2022-07-05T02:56:58;9.30;;;3.73;;
4202;SDS011;2115;51.038;7.006;2022-07-05T02:59:24;11.73;;;3.40;;
4202;SDS011;2115;51.038;7.006;2022-07-05T03:01:49;12.33;;;4.50;;
4202;SDS011;2115;51.038;7.006;2022-07-05T03:04:14;22.87;;;4.97;;
4202;SDS011;2115;51.038;7.006;2022-07-05T03:06:40;20.00;;;4.63;;
4202;SDS011;2115;51.038;7.006;2022-07-05T03:09:05;9.10;;;4.70;;
4202;SDS011;2115;51.038;7.006;2022-07-05T03:11:30;17.73;;;5.20;;
4202;SDS011;2115;51.038;7.006;2022-07-05T03:13:55;9.00;;;3.43;;
4202;SDS011;2115;51.038;7.006;2022-07-05T03:16:21;29.10;;;5.70;;
4202;SDS011;2115;51.038;7.006;2022-07-05T03:18:48;7.17;;;3.37;;
4202;SDS011;2115;51.038;7.006;2022-07-05T03:21:14;15.40;;;4.10;;
4202;SDS011;2115;51.038;7.006;2022-07-05T03:23:39;12.93;;;3.90;;
4202;SDS011;2115;51.038;7.006;2022-07-05T03:26:04;9.47;;;3.60;;
4202;SDS011;2115;51.038;7.006;2022-07-05T03:28:30;17.03;;;4.00;;
4202;SDS011;2115;51.038;7.006;2022-07-05T03:30:55;30.47;;;5.03;;
4202;SDS011;2115;51.038;7.006;2022-07-05T03:33:20;8.80;;;3.73;;
4202;SDS011;2115;51.038;7.006;2022-07-05T03:35:46;5.30;;;3.10;;
4202;SDS011;2115;51.038;7.006;2022-07-05T03:38:11;15.40;;;4.77;;
4202;SDS011;2115;51.038;7.006;2022-07-05T03:40:36;8.33;;;3.53;;
4202;SDS011;2115;51.038;7.006;2022-07-05T03:43:02;5.40;;;3.43;;
4202;SDS011;2115;51.038;7.006;2022-07-05T03:45:27;9.77;;;3.70;;
4202;SDS011;2115;51.038;7.006;2022-07-05T03:47:52;9.77;;;4.03;;
4202;SDS011;2115;51.038;7.006;2022-07-05T03:50:18;8.83;;;3.17;;
4202;SDS011;2115;51.038;7.006;2022-07-05T03:52:43;9.07;;;4.00;;
4202;SDS011;2115;51.038;7.006;2022-07-05T03:55:10;5.60;;;3.80;;
4202;SDS011;2115;51.038;7.006;2022-07-05T03:57:35;5.53;;;3.60;;
4202;SDS011;2115;51.038;7.006;2022-07-05T04:00:00;6.20;;;3.40;;
4202;SDS011;2115;51.038;7.006;2022-07-05T04:02:26;12.50;;;3.47;;
4202;SDS011;2115;51.038;7.006;2022-07-05T04:04:51;12.70;;;3.90;;
4202;SDS011;2115;51.038;7.006;2022-07-05T04:07:16;18.70;;;4.07;;
4202;SDS011;2115;51.038;7.006;2022-07-05T04:09:42;16.43;;;4.53;;
4202;SDS011;2115;51.038;7.006;2022-07-05T04:12:07;8.10;;;3.47;;
4202;SDS011;2115;51.038;7.006;2022-07-05T04:14:33;11.80;;;3.37;;
4202;SDS011;2115;51.038;7.006;2022-07-05T04:16:58;13.97;;;3.70;;
4202;SDS011;2115;51.038;7.006;2022-07-05T04:19:24;27.00;;;4.30;;
4202;SDS011;2115;51.038;7.006;2022-07-05T04:21:49;11.57;;;3.87;;
4202;SDS011;2115;51.038;7.006;2022-07-05T04:24:14;4.70;;;2.50;;
4202;SDS011;2115;51.038;7.006;2022-07-05T04:26:40;11.73;;;3.53;;
4202;SDS011;2115;51.038;7.006;2022-07-05T04:29:05;37.60;;;6.00;;
4202;SDS011;2115;51.038;7.006;2022-07-05T04:31:30;4.13;;;2.80;;
4202;SDS011;2115;51.038;7.006;2022-07-05T04:33:56;19.47;;;3.70;;
4202;SDS011;2115;51.038;7.006;2022-07-05T04:36:21;40.40;;;6.13;;
4202;SDS011;2115;51.038;7.006;2022-07-05T04:38:46;24.63;;;4.60;;
4202;SDS011;2115;51.038;7.006;2022-07-05T04:41:12;6.53;;;3.20;;
4202;SDS011;2115;51.038;7.006;2022-07-05T04:43:37;7.40;;;2.83;;
4202;SDS011;2115;51.038;7.006;2022-07-05T04:46:02;14.23;;;3.83;;
4202;SDS011;2115;51.038;7.006;2022-07-05T04:48:28;4.60;;;2.83;;
4202;SDS011;2115;51.038;7.006;2022-07-05T04:50:53;7.87;;;2.90;;
4202;SDS011;2115;51.038;7.006;2022-07-05T04:53:18;9.23;;;3.00;;
4202;SDS011;2115;51.038;7.006;2022-07-05T04:55:43;5.50;;;3.00;;
4202;SDS011;2115;51.038;7.006;2022-07-05T04:58:09;13.27;;;3.73;;
4202;SDS011;2115;51.038;7.006;2022-07-05T05:00:34;7.73;;;3.00;;
4202;SDS011;2115;51.038;7.006;2022-07-05T05:03:00;14.53;;;3.77;;
4202;SDS011;2115;51.038;7.006;2022-07-05T05:05:25;11.03;;;3.67;;
4202;SDS011;2115;51.038;7.006;2022-07-05T05:07:50;8.13;;;3.43;;
4202;SDS011;2115;51.038;7.006;2022-07-05T05:10:16;17.70;;;4.27;;
4202;SDS011;2115;51.038;7.006;2022-07-05T05:12:41;6.47;;;3.57;;
4202;SDS011;2115;51.038;7.006;2022-07-05T05:15:07;7.60;;;3.07;;
4202;SDS011;2115;51.038;7.006;2022-07-05T05:17:36;6.07;;;2.90;;
4202;SDS011;2115;51.038;7.006;2022-07-05T05:20:03;25.57;;;3.87;;
4202;SDS011;2115;51.038;7.006;2022-07-05T05:22:30;11.90;;;3.40;;
4202;SDS011;2115;51.038;7.006;2022-07-05T05:24:55;3.57;;;2.70;;
4202;SDS011;2115;51.038;7.006;2022-07-05T05:27:21;8.03;;;2.70;;
4202;SDS011;2115;51.038;7.006;2022-07-05T05:29:46;4.60;;;3.00;;
4202;SDS011;2115;51.038;7.006;2022-07-05T05:32:11;5.87;;;2.40;;
4202;SDS011;2115;51.038;7.006;2022-07-05T05:34:37;29.13;;;5.07;;
4202;SDS011;2115;51.038;7.006;2022-07-05T05:37:02;9.40;;;2.87;;
4202;SDS011;2115;51.038;7.006;2022-07-05T05:39:28;7.63;;;2.87;;
4202;SDS011;2115;51.038;7.006;2022-07-05T05:41:53;8.60;;;2.40;;
4202;SDS011;2115;51.038;7.006;2022-07-05T05:44:18;7.50;;;2.20;;
4202;SDS011;2115;51.038;7.006;2022-07-05T05:46:44;5.73;;;2.40;;
4202;SDS011;2115;51.038;7.006;2022-07-05T05:49:09;9.40;;;2.90;;
4202;SDS011;2115;51.038;7.006;2022-07-05T05:51:34;20.77;;;4.10;;
4202;SDS011;2115;51.038;7.006;2022-07-05T05:54:00;11.07;;;2.70;;
4202;SDS011;2115;51.038;7.006;2022-07-05T05:56:25;2.90;;;1.70;;
4202;SDS011;2115;51.038;7.006;2022-07-05T05:58:51;9.03;;;2.20;;
4202;SDS011;2115;51.038;7.006;2022-07-05T06:01:17;19.10;;;3.93;;
4202;SDS011;2115;51.038;7.006;2022-07-05T06:03:43;22.27;;;3.53;;
4202;SDS011;2115;51.038;7.006;2022-07-05T06:06:08;16.83;;;3.30;;
4202;SDS011;2115;51.038;7.006;2022-07-05T06:08:33;17.17;;;3.40;;
4202;SDS011;2115;51.038;7.006;2022-07-05T06:10:59;6.40;;;1.90;;
4202;SDS011;2115;51.038;7.006;2022-07-05T06:13:24;4.70;;;2.50;;
4202;SDS011;2115;51.038;7.006;2022-07-05T06:15:49;5.93;;;2.20;;
4202;SDS011;2115;51.038;7.006;2022-07-05T06:18:15;15.73;;;2.40;;
4202;SDS011;2115;51.038;7.006;2022-07-05T06:20:40;5.93;;;2.00;;
4202;SDS011;2115;51.038;7.006;2022-07-05T06:23:06;7.73;;;2.17;;
4202;SDS011;2115;51.038;7.006;2022-07-05T06:25:32;17.07;;;3.60;;
4202;SDS011;2115;51.038;7.006;2022-07-05T06:27:59;10.80;;;2.57;;
4202;SDS011;2115;51.038;7.006;2022-07-05T06:30:27;2.83;;;1.80;;
4202;SDS011;2115;51.038;7.006;2022-07-05T06:32:55;9.70;;;2.77;;
4202;SDS011;2115;51.038;7.006;2022-07-05T06:35:21;28.87;;;3.63;;
4202;SDS011;2115;51.038;7.006;2022-07-05T06:37:48;6.77;;;2.47;;
4202;SDS011;2115;51.038;7.006;2022-07-05T06:40:23;5.57;;;2.17;;
4202;SDS011;2115;51.038;7.006;2022-07-05T06:42:50;9.27;;;2.47;;
4202;SDS011;2115;51.038;7.006;2022-07-05T06:45:16;7.83;;;2.40;;
4202;SDS011;2115;51.038;7.006;2022-07-05T06:47:41;5.43;;;1.80;;
4202;SDS011;2115;51.038;7.006;2022-07-05T06:50:07;12.63;;;3.13;;
4202;SDS011;2115;51.038;7.006;2022-07-05T06:52:32;12.23;;;2.73;;
4202;SDS011;2115;51.038;7.006;2022-07-05T06:54:59;6.07;;;2.20;;
4202;SDS011;2115;51.038;7.006;2022-07-05T06:57:25;3.97;;;1.67;;
4202;SDS011;2115;51.038;7.006;2022-07-05T06:59:51;3.97;;;1.40;;
4202;SDS011;2115;51.038;7.006;2022-07-05T07:02:16;17.83;;;2.90;;
4202;SDS011;2115;51.038;7.006;2022-07-05T07:04:44;13.23;;;3.23;;
4202;SDS011;2115;51.038;7.006;2022-07-05T07:07:09;19.73;;;2.70;;
4202;SDS011;2115;51.038;7.006;2022-07-05T07:09:56;3.80;;;2.00;;
4202;SDS011;2115;51.038;7.006;2022-07-05T07:12:22;8.27;;;2.30;;
4202;SDS011;2115;51.038;7.006;2022-07-05T07:14:47;16.00;;;3.60;;
4202;SDS011;2115;51.038;7.006;2022-07-05T07:17:12;38.77;;;4.70;;
4202;SDS011;2115;51.038;7.006;2022-07-05T07:19:38;7.50;;;2.37;;
4202;SDS011;2115;51.038;7.006;2022-07-05T07:22:03;7.33;;;2.10;;
4202;SDS011;2115;51.038;7.006;2022-07-05T07:24:29;3.40;;;1.93;;
4202;SDS011;2115;51.038;7.006;2022-07-05T07:26:54;9.70;;;2.70;;
4202;SDS011;2115;51.038;7.006;2022-07-05T07:29:29;12.13;;;3.07;;
4202;SDS011;2115;51.038;7.006;2022-07-05T07:31:55;24.77;;;2.93;;
4202;SDS011;2115;51.038;7.006;2022-07-05T07:34:21;5.87;;;2.50;;
4202;SDS011;2115;51.038;7.006;2022-07-05T07:36:47;9.80;;;2.30;;
4202;SDS011;2115;51.038;7.006;2022-07-05T07:39:12;7.00;;;2.07;;
4202;SDS011;2115;51.038;7.006;2022-07-05T07:41:38;11.43;;;2.00;;
4202;SDS011;2115;51.038;7.006;2022-07-05T07:44:03;10.47;;;2.90;;
4202;SDS011;2115;51.038;7.006;2022-07-05T07:46:32;10.33;;;3.30;;
4202;SDS011;2115;51.038;7.006;2022-07-05T07:49:12;6.47;;;3.27;;
4202;SDS011;2115;51.038;7.006;2022-07-05T07:51:41;14.87;;;3.27;;
4202;SDS011;2115;51.038;7.006;2022-07-05T07:54:07;7.73;;;2.47;;
4202;SDS011;2115;51.038;7.006;2022-07-05T07:56:33;14.57;;;3.40;;
4202;SDS011;2115;51.038;7.006;2022-07-05T07:58:59;5.23;;;2.33;;
4202;SDS011;2115;51.038;7.006;2022-07-05T08:01:24;10.27;;;2.63;;
4202;SDS011;2115;51.038;7.006;2022-07-05T08:03:50;9.37;;;2.50;;
4202;SDS011;2115;51.038;7.006;2022-07-05T08:06:16;6.50;;;2.10;;
4202;SDS011;2115;51.038;7.006;2022-07-05T08:08:45;19.80;;;3.30;;
4202;SDS011;2115;51.038;7.006;2022-07-05T08:11:11;4.67;;;1.60;;
4202;SDS011;2115;51.038;7.006;2022-07-05T08:13:37;5.33;;;2.50;;
4202;SDS011;2115;51.038;7.006;2022-07-05T08:16:04;49.97;;;6.50;;
4202;SDS011;2115;51.038;7.006;2022-07-05T08:18:29;16.10;;;3.60;;
4202;SDS011;2115;51.038;7.006;2022-07-05T08:21:13;5.77;;;2.40;;
4202;SDS011;2115;51.038;7.006;2022-07-05T08:24:07;23.37;;;4.13;;
4202;SDS011;2115;51.038;7.006;2022-07-05T08:26:34;9.83;;;2.80;;
4202;SDS011;2115;51.038;7.006;2022-07-05T08:29:00;8.17;;;2.10;;
4202;SDS011;2115;51.038;7.006;2022-07-05T08:31:27;4.80;;;1.87;;
4202;SDS011;2115;51.038;7.006;2022-07-05T08:33:53;3.77;;;1.77;;
4202;SDS011;2115;51.038;7.006;2022-07-05T08:36:19;5.90;;;1.97;;
4202;SDS011;2115;51.038;7.006;2022-07-05T08:38:44;12.60;;;2.50;;
4202;SDS011;2115;51.038;7.006;2022-07-05T08:41:10;10.30;;;2.97;;
4202;SDS011;2115;51.038;7.006;2022-07-05T08:43:40;2.37;;;1.60;;
4202;SDS011;2115;51.038;7.006;2022-07-05T08:46:07;4.20;;;1.60;;
4202;SDS011;2115;51.038;7.006;2022-07-05T08:48:36;7.60;;;2.43;;
4202;SDS011;2115;51.038;7.006;2022-07-05T08:51:12;14.47;;;2.30;;
4202;SDS011;2115;51.038;7.006;2022-07-05T08:53:39;10.30;;;3.17;;
4202;SDS011;2115;51.038;7.006;2022-07-05T08:56:05;13.40;;;4.27;;
4202;SDS011;2115;51.038;7.006;2022-07-05T08:58:32;24.77;;;6.43;;
4202;SDS011;2115;51.038;7.006;2022-07-05T09:00:57;17.20;;;10.77;;
4202;SDS011;2115;51.038;7.006;2022-07-05T09:03:24;12.17;;;5.53;;
4202;SDS011;2115;51.038;7.006;2022-07-05T09:06:01;11.20;;;4.40;;
4202;SDS011;2115;51.038;7.006;2022-07-05T09:08:29;29.63;;;5.20;;
4202;SDS011;2115;51.038;7.006;2022-07-05T09:10:58;11.63;;;4.20;;
4202;SDS011;2115;51.038;7.006;2022-07-05T09:13:26;11.83;;;3.60;;
4202;SDS011;2115;51.038;7.006;2022-07-05T09:15:51;8.57;;;3.10;;
4202;SDS011;2115;51.038;7.006;2022-07-05T09:23:45;6.60;;;3.57;;
4202;SDS011;2115;51.038;7.006;2022-07-05T09:26:19;5.63;;;3.40;;
4202;SDS011;2115;51.038;7.006;2022-07-05T09:28:54;9.77;;;2.50;;
4202;SDS011;2115;51.038;7.006;2022-07-05T09:31:54;32.37;;;7.03;;
4202;SDS011;2115;51.038;7.006;2022-07-05T09:34:20;14.70;;;8.30;;
4202;SDS011;2115;51.038;7.006;2022-07-05T09:39:40;18.00;;;6.60;;
4202;SDS011;2115;51.038;7.006;2022-07-05T09:42:17;15.83;;;5.10;;
4202;SDS011;2115;51.038;7.006;2022-07-05T09:47:13;9.00;;;3.17;;
4202;SDS011;2115;51.038;7.006;2022-07-05T09:49:46;40.90;;;11.83;;
4202;SDS011;2115;51.038;7.006;2022-07-05T09:55:02;12.03;;;3.50;;
4202;SDS011;2115;51.038;7.006;2022-07-05T09:57:29;8.20;;;2.53;;
4202;SDS011;2115;51.038;7.006;2022-07-05T09:59:58;12.20;;;2.67;;
4202;SDS011;2115;51.038;7.006;2022-07-05T10:02:39;6.27;;;2.20;;
4202;SDS011;2115;51.038;7.006;2022-07-05T10:05:14;7.30;;;2.00;;
4202;SDS011;2115;51.038;7.006;2022-07-05T10:07:44;5.40;;;2.37;;
4202;SDS011;2115;51.038;7.006;2022-07-05T10:10:11;13.43;;;2.70;;
4202;SDS011;2115;51.038;7.006;2022-07-05T10:12:38;5.83;;;2.13;;
4202;SDS011;2115;51.038;7.006;2022-07-05T10:15:05;22.00;;;3.90;;
4202;SDS011;2115;51.038;7.006;2022-07-05T10:17:35;4.57;;;1.63;;
4202;SDS011;2115;51.038;7.006;2022-07-05T10:20:05;17.33;;;3.27;;
4202;SDS011;2115;51.038;7.006;2022-07-05T10:22:36;3.80;;;2.30;;
4202;SDS011;2115;51.038;7.006;2022-07-05T10:25:02;13.77;;;4.37;;
4202;SDS011;2115;51.038;7.006;2022-07-05T10:27:28;8.50;;;4.57;;
4202;SDS011;2115;51.038;7.006;2022-07-05T10:29:54;8.80;;;2.40;;
4202;SDS011;2115;51.038;7.006;2022-07-05T10:32:22;3.50;;;1.90;;
4202;SDS011;2115;51.038;7.006;2022-07-05T10:34:48;17.73;;;1.93;;
4202;SDS011;2115;51.038;7.006;2022-07-05T10:37:16;21.23;;;3.60;;
4202;SDS011;2115;51.038;7.006;2022-07-05T10:39:41;10.10;;;2.30;;
4202;SDS011;2115;51.038;7.006;2022-07-05T10:42:07;54.83;;;7.13;;
4202;SDS011;2115;51.038;7.006;2022-07-05T10:44:33;8.43;;;5.40;;
4202;SDS011;2115;51.038;7.006;2022-07-05T10:47:08;14.17;;;6.17;;
4202;SDS011;2115;51.038;7.006;2022-07-05T10:49:36;44.60;;;41.20;;
4202;SDS011;2115;51.038;7.006;2022-07-05T10:52:02;48.27;;;45.17;;
4202;SDS011;2115;51.038;7.006;2022-07-05T10:54:28;50.93;;;13.20;;
4202;SDS011;2115;51.038;7.006;2022-07-05T11:00:08;32.53;;;30.27;;
4202;SDS011;2115;51.038;7.006;2022-07-05T11:02:35;32.07;;;28.93;;
4202;SDS011;2115;51.038;7.006;2022-07-05T11:05:01;23.37;;;17.00;;
4202;SDS011;2115;51.038;7.006;2022-07-05T11:10:24;52.20;;;33.53;;
4202;SDS011;2115;51.038;7.006;2022-07-05T11:12:49;45.83;;;42.97;;
4202;SDS011;2115;51.038;7.006;2022-07-05T11:15:15;52.20;;;34.77;;
4202;SDS011;2115;51.038;7.006;2022-07-05T11:17:40;35.57;;;8.33;;
4202;SDS011;2115;51.038;7.006;2022-07-05T11:23:04;8.53;;;2.40;;
4202;SDS011;2115;51.038;7.006;2022-07-05T11:25:34;6.50;;;1.73;;
4202;SDS011;2115;51.038;7.006;2022-07-05T11:28:06;7.50;;;3.63;;
4202;SDS011;2115;51.038;7.006;2022-07-05T11:39:09;12.40;;;2.53;;
4202;SDS011;2115;51.038;7.006;2022-07-05T11:41:37;10.57;;;2.50;;
4202;SDS011;2115;51.038;7.006;2022-07-05T11:44:03;9.63;;;2.27;;
4202;SDS011;2115;51.038;7.006;2022-07-05T11:46:31;3.73;;;2.17;;
4202;SDS011;2115;51.038;7.006;2022-07-05T11:48:57;4.97;;;4.47;;
4202;SDS011;2115;51.038;7.006;2022-07-05T11:51:24;13.00;;;2.47;;
4202;SDS011;2115;51.038;7.006;2022-07-05T11:53:50;23.70;;;12.03;;
4202;SDS011;2115;51.038;7.006;2022-07-05T11:56:15;10.57;;;6.57;;
4202;SDS011;2115;51.038;7.006;2022-07-05T11:58:41;35.27;;;31.80;;
4202;SDS011;2115;51.038;7.006;2022-07-05T12:01:06;19.33;;;18.07;;
4202;SDS011;2115;51.038;7.006;2022-07-05T12:03:32;7.93;;;5.20;;
4202;SDS011;2115;51.038;7.006;2022-07-05T12:05:58;9.13;;;8.33;;
4202;SDS011;2115;51.038;7.006;2022-07-05T12:08:24;20.37;;;18.83;;
4202;SDS011;2115;51.038;7.006;2022-07-05T12:10:50;20.33;;;8.33;;
4202;SDS011;2115;51.038;7.006;2022-07-05T12:13:44;12.15;;;11.30;;
4202;SDS011;2115;51.038;7.006;2022-07-05T12:16:13;15.75;;;8.40;;
4202;SDS011;2115;51.038;7.006;2022-07-05T12:18:51;11.70;;;3.70;;
4202;SDS011;2115;51.038;7.006;2022-07-05T12:21:19;27.52;;;5.72;;
4202;SDS011;2115;51.038;7.006;2022-07-05T12:23:45;6.63;;;2.00;;
4202;SDS011;2115;51.038;7.006;2022-07-05T12:26:15;10.93;;;2.72;;
4202;SDS011;2115;51.038;7.006;2022-07-05T12:28:42;29.45;;;6.85;;
4202;SDS011;2115;51.038;7.006;2022-07-05T12:31:14;49.72;;;16.48;;
4202;SDS011;2115;51.038;7.006;2022-07-05T12:33:40;15.80;;;4.70;;
4202;SDS011;2115;51.038;7.006;2022-07-05T12:36:10;24.93;;;8.33;;
4202;SDS011;2115;51.038;7.006;2022-07-05T12:38:36;10.45;;;9.35;;
4202;SDS011;2115;51.038;7.006;2022-07-05T12:41:02;14.07;;;2.65;;
4202;SDS011;2115;51.038;7.006;2022-07-05T12:43:27;14.82;;;4.00;;
4202;SDS011;2115;51.038;7.006;2022-07-05T12:48:32;4.22;;;1.50;;
4202;SDS011;2115;51.038;7.006;2022-07-05T12:50:58;23.90;;;3.72;;
4202;SDS011;2115;51.038;7.006;2022-07-05T12:53:23;4.80;;;4.38;;
4202;SDS011;2115;51.038;7.006;2022-07-05T12:56:08;8.60;;;5.65;;
4202;SDS011;2115;51.038;7.006;2022-07-05T12:59:00;10.70;;;2.35;;
4202;SDS011;2115;51.038;7.006;2022-07-05T13:03:55;10.05;;;2.05;;
4202;SDS011;2115;51.038;7.006;2022-07-05T13:06:23;10.88;;;2.35;;
4202;SDS011;2115;51.038;7.006;2022-07-05T13:08:58;15.13;;;2.60;;
4202;SDS011;2115;51.038;7.006;2022-07-05T13:11:32;10.13;;;2.10;;
4202;SDS011;2115;51.038;7.006;2022-07-05T13:13:58;6.75;;;1.52;;
4202;SDS011;2115;51.038;7.006;2022-07-05T13:16:23;10.60;;;1.67;;
4202;SDS011;2115;51.038;7.006;2022-07-05T13:18:48;24.95;;;3.30;;
4202;SDS011;2115;51.038;7.006;2022-07-05T13:21:14;5.07;;;1.70;;
4202;SDS011;2115;51.038;7.006;2022-07-05T13:23:39;7.95;;;2.42;;
4202;SDS011;2115;51.038;7.006;2022-07-05T13:26:04;6.78;;;2.33;;
4202;SDS011;2115;51.038;7.006;2022-07-05T13:28:31;14.98;;;2.42;;
4202;SDS011;2115;51.038;7.006;2022-07-05T13:30:56;34.88;;;4.18;;
4202;SDS011;2115;51.038;7.006;2022-07-05T13:33:22;15.63;;;2.58;;
4202;SDS011;2115;51.038;7.006;2022-07-05T13:35:47;4.88;;;1.42;;
4202;SDS011;2115;51.038;7.006;2022-07-05T13:38:13;15.70;;;2.15;;
4202;SDS011;2115;51.038;7.006;2022-07-05T13:40:38;8.52;;;1.50;;
4202;SDS011;2115;51.038;7.006;2022-07-05T13:43:05;9.38;;;2.15;;
4202;SDS011;2115;51.038;7.006;2022-07-05T13:45:30;11.70;;;2.15;;
4202;SDS011;2115;51.038;7.006;2022-07-05T13:47:55;10.02;;;2.42;;
4202;SDS011;2115;51.038;7.006;2022-07-05T13:50:21;12.85;;;2.25;;
4202;SDS011;2115;51.038;7.006;2022-07-05T13:52:59;12.02;;;2.30;;
4202;SDS011;2115;51.038;7.006;2022-07-05T13:55:25;4.18;;;1.70;;
4202;SDS011;2115;51.038;7.006;2022-07-05T13:57:50;31.60;;;4.60;;
4202;SDS011;2115;51.038;7.006;2022-07-05T14:00:16;5.85;;;1.65;;
4202;SDS011;2115;51.038;7.006;2022-07-05T14:02:42;14.73;;;2.60;;
4202;SDS011;2115;51.038;7.006;2022-07-05T14:05:08;49.58;;;5.50;;
4202;SDS011;2115;51.038;7.006;2022-07-05T14:07:34;8.47;;;1.60;;
4202;SDS011;2115;51.038;7.006;2022-07-05T14:09:59;10.03;;;2.47;;
4202;SDS011;2115;51.038;7.006;2022-07-05T14:12:24;43.83;;;5.90;;
4202;SDS011;2115;51.038;7.006;2022-07-05T14:14:50;12.30;;;2.63;;
4202;SDS011;2115;51.038;7.006;2022-07-05T14:17:15;7.17;;;1.80;;
4202;SDS011;2115;51.038;7.006;2022-07-05T14:19:40;22.77;;;4.27;;
4202;SDS011;2115;51.038;7.006;2022-07-05T14:22:06;7.50;;;1.98;;
4202;SDS011;2115;51.038;7.006;2022-07-05T14:24:32;3.35;;;1.80;;
4202;SDS011;2115;51.038;7.006;2022-07-05T14:26:57;7.82;;;2.00;;
4202;SDS011;2115;51.038;7.006;2022-07-05T14:29:23;3.72;;;1.83;;
4202;SDS011;2115;51.038;7.006;2022-07-05T14:31:48;2.50;;;1.40;;
4202;SDS011;2115;51.038;7.006;2022-07-05T14:34:13;9.52;;;2.00;;
4202;SDS011;2115;51.038;7.006;2022-07-05T14:36:39;7.72;;;2.08;;
4202;SDS011;2115;51.038;7.006;2022-07-05T14:39:04;17.27;;;2.97;;
4202;SDS011;2115;51.038;7.006;2022-07-05T14:41:29;12.05;;;2.60;;
4202;SDS011;2115;51.038;7.006;2022-07-05T14:43:55;6.05;;;1.83;;
4202;SDS011;2115;51.038;7.006;2022-07-05T14:46:20;3.53;;;1.35;;
4202;SDS011;2115;51.038;7.006;2022-07-05T14:48:46;5.32;;;1.60;;
4202;SDS011;2115;51.038;7.006;2022-07-05T14:51:12;11.07;;;3.15;;
4202;SDS011;2115;51.038;7.006;2022-07-05T14:53:38;7.15;;;1.92;;
4202;SDS011;2115;51.038;7.006;2022-07-05T14:56:03;17.55;;;2.83;;
4202;SDS011;2115;51.038;7.006;2022-07-05T14:58:29;19.33;;;2.78;;
4202;SDS011;2115;51.038;7.006;2022-07-05T15:00:57;10.68;;;1.95;;
4202;SDS011;2115;51.038;7.006;2022-07-05T15:03:23;7.38;;;1.48;;
4202;SDS011;2115;51.038;7.006;2022-07-05T15:05:49;15.80;;;2.65;;
4202;SDS011;2115;51.038;7.006;2022-07-05T15:08:14;33.05;;;4.40;;
4202;SDS011;2115;51.038;7.006;2022-07-05T15:10:40;9.30;;;2.30;;
4202;SDS011;2115;51.038;7.006;2022-07-05T15:13:05;6.65;;;1.63;;
4202;SDS011;2115;51.038;7.006;2022-07-05T15:15:32;34.72;;;5.15;;
4202;SDS011;2115;51.038;7.006;2022-07-05T15:17:58;18.05;;;3.05;;
4202;SDS011;2115;51.038;7.006;2022-07-05T15:20:23;11.13;;;2.38;;
4202;SDS011;2115;51.038;7.006;2022-07-05T15:22:49;9.45;;;2.45;;
4202;SDS011;2115;51.038;7.006;2022-07-05T15:25:15;11.20;;;2.22;;
4202;SDS011;2115;51.038;7.006;2022-07-05T15:27:40;5.75;;;1.60;;
4202;SDS011;2115;51.038;7.006;2022-07-05T15:30:06;22.02;;;3.10;;
4202;SDS011;2115;51.038;7.006;2022-07-05T15:32:31;4.55;;;1.85;;
4202;SDS011;2115;51.038;7.006;2022-07-05T15:34:57;9.85;;;1.77;;
4202;SDS011;2115;51.038;7.006;2022-07-05T15:37:22;25.48;;;4.13;;
4202;SDS011;2115;51.038;7.006;2022-07-05T15:39:48;4.10;;;1.95;;
4202;SDS011;2115;51.038;7.006;2022-07-05T15:42:13;17.00;;;3.83;;